createdAt,value
2018-06-12T00:02:28.723Z,88.07
2018-06-12T00:04:58.696Z,88.45
2018-06-12T00:07:28.601Z,88.16
2018-06-12T00:09:58.813Z,87.43
2018-06-12T00:12:28.957Z,87.70
2018-06-12T00:14:58.794Z,87.95
2018-06-12T00:17:28.840Z,87.28
2018-06-12T00:19:58.998Z,87.68
2018-06-12T00:22:28.972Z,88.16
2018-06-12T00:24:58.906Z,88.43
2018-06-12T00:27:28.891Z,88.39
2018-06-12T00:29:58.894Z,88.57
2018-06-12T00:32:29.065Z,88.24
2018-06-12T00:35:04.892Z,87.81
2018-06-12T00:37:34.028Z,88.79
2018-06-12T00:40:03.094Z,87.94
2018-06-12T00:42:32.212Z,88.94
2018-06-12T00:45:01.354Z,89.11
2018-06-12T00:47:30.579Z,89.09
2018-06-12T00:49:59.807Z,89.01
2018-06-12T00:52:29.339Z,88.61
2018-06-12T00:54:59.188Z,88.71
2018-06-12T00:57:29.187Z,88.59
2018-06-12T00:59:58.410Z,88.72
2018-06-12T01:02:28.120Z,88.88
2018-06-12T01:04:57.282Z,88.59
2018-06-12T01:07:26.335Z,89.22
2018-06-12T01:09:55.472Z,89.27
2018-06-12T01:12:24.615Z,89.34
2018-06-12T01:14:53.781Z,88.56
2018-06-12T01:17:22.921Z,88.71
2018-06-12T01:19:52.129Z,89.50
2018-06-12T01:22:21.222Z,88.96
2018-06-12T01:24:50.378Z,89.65
2018-06-12T01:27:21.066Z,89.82
2018-06-12T01:29:50.247Z,89.07
2018-06-12T01:32:20.340Z,88.84
2018-06-12T01:34:49.638Z,88.44
2018-06-12T01:37:18.779Z,88.58
2018-06-12T01:39:47.951Z,88.79
2018-06-12T01:42:17.204Z,88.36
2018-06-12T01:44:46.297Z,88.81
2018-06-12T01:47:15.402Z,88.25
2018-06-12T01:49:44.558Z,88.16
2018-06-12T01:52:16.808Z,89.25
2018-06-12T01:54:45.937Z,88.84
2018-06-12T01:57:18.177Z,89.00
2018-06-12T01:59:47.397Z,89.08
2018-06-12T02:02:16.579Z,88.37
2018-06-12T02:04:45.677Z,88.23
2018-06-12T02:07:14.833Z,88.27
2018-06-12T02:09:43.940Z,87.98
2018-06-12T02:12:13.125Z,88.54
2018-06-12T02:14:42.231Z,88.40
2018-06-12T02:17:11.457Z,89.20
2018-06-12T02:19:40.627Z,88.70
2018-06-12T02:22:09.805Z,88.43
2018-06-12T02:24:38.921Z,88.96
2018-06-12T02:27:08.051Z,88.66
2018-06-12T02:29:37.156Z,88.62
2018-06-12T02:32:06.243Z,88.42
2018-06-12T02:34:35.318Z,89.27
2018-06-12T02:37:05.141Z,89.00
2018-06-12T02:39:35.147Z,89.39
2018-06-12T02:42:08.223Z,88.59
2018-06-12T02:44:37.553Z,88.79
2018-06-12T02:47:06.675Z,88.67
2018-06-12T02:49:35.760Z,88.08
2018-06-12T02:52:05.348Z,88.49
2018-06-12T02:54:35.335Z,88.52
2018-06-12T02:57:05.319Z,87.57
2018-06-12T02:59:35.360Z,88.81
2018-06-12T03:02:05.383Z,87.88
2018-06-12T03:04:35.397Z,87.99
2018-06-12T03:07:05.464Z,87.28
2018-06-12T03:09:35.449Z,87.00
2018-06-12T03:12:05.672Z,86.98
2018-06-12T03:14:35.409Z,86.97
2018-06-12T03:17:05.637Z,87.09
2018-06-12T03:19:35.523Z,86.27
2018-06-12T03:22:05.524Z,86.48
2018-06-12T03:24:35.496Z,87.49
2018-06-12T03:27:05.481Z,85.96
2018-06-12T03:29:35.515Z,86.22
2018-06-12T03:32:05.387Z,85.94
2018-06-12T03:34:34.577Z,86.71
2018-06-12T03:37:03.694Z,86.10
2018-06-12T03:39:36.689Z,86.55
2018-06-12T03:42:06.589Z,86.74
2018-06-12T03:44:35.808Z,86.04
2018-06-12T03:47:05.415Z,86.23
2018-06-12T03:49:34.485Z,87.01
2018-06-12T03:52:03.790Z,86.16
2018-06-12T03:54:33.061Z,87.20
2018-06-12T03:57:02.297Z,86.48
2018-06-12T03:59:31.364Z,87.52
2018-06-12T04:02:00.500Z,87.02
2018-06-12T04:04:29.638Z,87.21
2018-06-12T04:06:58.893Z,86.47
2018-06-12T04:09:28.110Z,87.10
2018-06-12T04:11:57.183Z,86.42
2018-06-12T04:14:26.675Z,87.08
2018-06-12T04:16:55.740Z,87.28
2018-06-12T04:19:24.847Z,86.27
2018-06-12T04:21:53.943Z,86.81
2018-06-12T04:24:23.343Z,86.42
2018-06-12T04:26:52.556Z,87.06
2018-06-12T04:29:21.699Z,86.62
2018-06-12T04:31:50.787Z,86.96
2018-06-12T04:34:19.867Z,87.02
2018-06-12T04:36:49.052Z,86.89
2018-06-12T04:39:18.186Z,87.58
2018-06-12T04:41:47.339Z,86.62
2018-06-12T04:44:16.393Z,86.46
2018-06-12T04:46:45.475Z,86.40
2018-06-12T04:49:15.144Z,86.41
2018-06-12T04:51:44.225Z,86.48
2018-06-12T04:54:13.522Z,86.35
2018-06-12T04:56:42.734Z,87.30
2018-06-12T04:59:11.831Z,86.86
2018-06-12T05:01:45.608Z,86.06
2018-06-12T05:04:15.544Z,85.59
2018-06-12T05:06:44.768Z,86.19
2018-06-12T05:09:13.941Z,86.19
2018-06-12T05:11:46.324Z,85.58
2018-06-12T05:14:15.423Z,86.38
2018-06-12T05:16:44.600Z,85.97
2018-06-12T05:19:13.708Z,86.67
2018-06-12T05:21:42.849Z,86.67
2018-06-12T05:24:12.008Z,86.11
2018-06-12T05:26:45.520Z,86.92
2018-06-12T05:29:14.634Z,86.88
2018-06-12T05:31:43.790Z,87.01
2018-06-12T05:34:13.019Z,86.21
2018-06-12T05:36:42.186Z,86.71
2018-06-12T05:39:12.334Z,86.19
2018-06-12T05:41:41.652Z,86.02
2018-06-12T05:44:11.002Z,86.05
2018-06-12T05:46:40.944Z,86.15
2018-06-12T05:49:11.010Z,85.60
2018-06-12T05:51:40.926Z,85.41
2018-06-12T05:54:11.085Z,85.17
2018-06-12T05:56:40.982Z,85.34
2018-06-12T05:59:11.294Z,85.44
2018-06-12T06:01:44.210Z,85.53
2018-06-12T06:04:13.336Z,84.74
2018-06-12T06:06:42.611Z,84.69
2018-06-12T06:09:13.034Z,84.07
2018-06-12T06:11:45.356Z,84.20
2018-06-12T06:14:14.525Z,84.06
2018-06-12T06:16:43.695Z,82.76
2018-06-12T06:19:19.079Z,83.23
2018-06-12T06:21:48.232Z,82.95
2018-06-12T06:24:17.383Z,81.31
2018-06-12T06:26:46.530Z,83.23
2018-06-12T06:29:21.589Z,82.84
2018-06-12T06:31:50.754Z,82.50
2018-06-12T06:34:25.269Z,83.36
2018-06-12T06:36:54.508Z,83.13
2018-06-12T06:39:23.635Z,81.04
2018-06-12T06:41:53.101Z,82.00
2018-06-12T06:44:22.260Z,80.76
2018-06-12T06:46:51.305Z,81.92
2018-06-12T06:49:20.543Z,81.37
2018-06-12T06:51:49.648Z,80.69
2018-06-12T06:54:18.769Z,78.98
2018-06-12T06:56:48.183Z,80.11
2018-06-12T06:59:17.297Z,78.62
2018-06-12T07:01:46.545Z,78.56
2018-06-12T07:04:15.735Z,78.06
2018-06-12T07:06:44.840Z,76.79
2018-06-12T07:09:13.933Z,75.34
2018-06-12T07:11:43.157Z,77.36
2018-06-12T07:14:12.326Z,75.31
2018-06-12T07:16:45.186Z,74.68
2018-06-12T07:19:14.407Z,75.32
2018-06-12T07:21:43.476Z,75.45
2018-06-12T07:24:13.569Z,74.25
2018-06-12T07:26:42.692Z,75.07
2018-06-12T07:29:11.954Z,74.36
2018-06-12T07:31:42.079Z,75.46
2018-06-12T07:34:12.113Z,75.64
2018-06-12T07:36:42.035Z,74.29
2018-06-12T07:39:13.115Z,74.57
2018-06-12T07:41:42.286Z,76.37
2018-06-12T07:44:12.225Z,76.19
2018-06-12T07:46:45.058Z,75.60
2018-06-12T07:49:14.760Z,75.56
2018-06-12T07:51:43.845Z,76.95
2018-06-12T07:54:13.049Z,74.60
2018-06-12T07:56:43.083Z,76.37
2018-06-12T07:59:12.461Z,77.06
2018-06-12T08:01:42.962Z,76.93
2018-06-12T08:04:18.322Z,77.32
2018-06-12T08:06:47.464Z,76.69
2018-06-12T08:09:21.140Z,74.50
2018-06-12T08:11:50.202Z,76.12
2018-06-12T08:14:19.463Z,75.95
2018-06-12T08:16:48.692Z,77.09
2018-06-12T08:19:17.926Z,77.00
2018-06-12T08:21:52.546Z,74.82
2018-06-12T08:24:31.979Z,73.02
2018-06-12T08:27:01.184Z,73.52
2018-06-12T08:29:30.323Z,71.81
2018-06-12T08:31:59.498Z,73.17
2018-06-12T08:34:28.622Z,73.70
2018-06-12T08:36:57.767Z,73.00
2018-06-12T08:39:32.593Z,73.69
2018-06-12T08:42:01.706Z,73.16
2018-06-12T08:44:30.787Z,72.65
2018-06-12T08:47:00.182Z,72.54
2018-06-12T08:49:29.351Z,70.53
2018-06-12T08:51:58.946Z,68.80
2018-06-12T08:54:29.487Z,69.26
2018-06-12T08:56:58.652Z,66.31
2018-06-12T08:59:29.671Z,67.05
2018-06-12T09:01:58.784Z,66.38
2018-06-12T09:04:31.347Z,68.49
2018-06-12T09:07:03.952Z,69.09
2018-06-12T09:09:33.131Z,68.26
2018-06-12T09:12:02.287Z,65.96
2018-06-12T09:14:31.611Z,63.98
2018-06-12T09:17:00.767Z,65.18
2018-06-12T09:19:29.999Z,63.41
2018-06-12T09:21:59.170Z,66.51
2018-06-12T09:24:31.929Z,68.36
2018-06-12T09:27:00.991Z,66.40
2018-06-12T09:29:30.257Z,66.11
2018-06-12T09:31:59.458Z,65.42
2018-06-12T09:34:28.554Z,65.97
2018-06-12T09:36:57.775Z,65.00
2018-06-12T09:39:26.912Z,64.91
2018-06-12T09:41:56.150Z,65.23
2018-06-12T09:44:25.312Z,64.26
2018-06-12T09:46:55.936Z,64.55
2018-06-12T09:49:25.062Z,62.74
2018-06-12T09:51:54.239Z,63.42
2018-06-12T09:54:30.401Z,65.62
2018-06-12T09:56:59.640Z,63.83
2018-06-12T09:59:28.863Z,62.37
2018-06-12T10:01:58.126Z,60.59
2018-06-12T10:04:27.352Z,63.64
2018-06-12T10:06:56.463Z,62.78
2018-06-12T10:09:27.039Z,64.27
2018-06-12T10:11:56.428Z,63.20
2018-06-12T10:14:25.556Z,65.25
2018-06-12T10:16:54.659Z,64.41
2018-06-12T10:19:23.828Z,64.59
2018-06-12T10:21:52.906Z,62.33
2018-06-12T10:24:25.030Z,62.53
2018-06-12T10:26:54.288Z,64.19
2018-06-12T10:29:28.519Z,62.95
2018-06-12T10:31:57.702Z,62.33
2018-06-12T10:34:26.818Z,63.84
2018-06-12T10:36:56.098Z,64.44
2018-06-12T10:39:25.325Z,64.42
2018-06-12T10:41:54.529Z,63.63
2018-06-12T10:44:24.165Z,63.45
2018-06-12T10:46:53.285Z,64.58
2018-06-12T10:49:22.421Z,65.62
2018-06-12T10:51:51.583Z,60.75
2018-06-12T10:56:54.481Z,59.10
2018-06-12T10:59:23.601Z,59.81
2018-06-12T11:01:52.880Z,60.50
2018-06-12T11:04:22.092Z,58.61
2018-06-12T11:06:51.310Z,60.35
2018-06-12T11:09:20.508Z,59.58
2018-06-12T11:11:49.640Z,58.58
2018-06-12T11:14:18.769Z,59.16
2018-06-12T11:16:47.918Z,58.37
2018-06-12T11:19:17.111Z,57.08
2018-06-12T11:21:46.217Z,60.76
2018-06-12T11:24:16.626Z,58.75
2018-06-12T11:26:55.670Z,58.54
2018-06-12T11:29:24.820Z,58.71
2018-06-12T11:31:53.937Z,59.41
2018-06-12T11:34:23.124Z,56.87
2018-06-12T11:36:58.032Z,55.92
2018-06-12T11:39:27.234Z,58.40
2018-06-12T11:41:56.454Z,56.32
2018-06-12T11:44:25.690Z,55.54
2018-06-12T11:46:54.835Z,54.39
2018-06-12T11:49:24.045Z,56.32
2018-06-12T11:51:53.247Z,55.92
2018-06-12T11:54:22.440Z,53.69
2018-06-12T11:56:51.770Z,55.37
2018-06-12T11:59:20.990Z,56.72
2018-06-12T12:01:50.106Z,54.93
2018-06-12T12:04:19.487Z,54.60
2018-06-12T12:06:49.224Z,55.19
2018-06-12T12:09:19.659Z,55.81
2018-06-12T12:11:48.716Z,54.28
2018-06-12T12:14:17.845Z,54.42
2018-06-12T12:16:47.212Z,54.90
2018-06-12T12:19:16.693Z,54.08
2018-06-12T12:21:46.581Z,51.83
2018-06-12T12:24:29.872Z,51.85
2018-06-12T12:26:59.034Z,56.74
2018-06-12T12:29:28.213Z,55.15
2018-06-12T12:31:57.329Z,53.27
2018-06-12T12:34:26.524Z,55.64
2018-06-12T12:36:55.729Z,54.81
2018-06-12T12:39:24.979Z,53.80
2018-06-12T12:41:54.313Z,53.31
2018-06-12T12:44:23.445Z,50.04
2018-06-12T12:46:52.634Z,51.02
2018-06-12T12:49:21.746Z,51.09
2018-06-12T12:51:50.933Z,50.68
2018-06-12T12:54:20.196Z,51.51
2018-06-12T12:56:49.388Z,50.74
2018-06-12T12:59:18.472Z,49.59
2018-06-12T13:01:47.619Z,50.16
2018-06-12T13:04:16.747Z,50.66
2018-06-12T13:06:46.274Z,50.95
2018-06-12T13:09:16.275Z,49.06
2018-06-12T13:11:46.331Z,51.76
2018-06-12T13:14:16.308Z,52.70
2018-06-12T13:16:46.314Z,50.18
2018-06-12T13:19:16.375Z,50.22
2018-06-12T13:21:46.413Z,52.47
2018-06-12T13:24:16.461Z,51.97
2018-06-12T13:26:46.425Z,53.27
2018-06-12T13:29:16.540Z,52.56
2018-06-12T13:31:46.476Z,51.67
2018-06-12T13:34:16.603Z,53.42
2018-06-12T13:36:46.560Z,52.22
2018-06-12T13:39:16.624Z,53.54
2018-06-12T13:41:46.731Z,53.77
2018-06-12T13:44:16.547Z,54.16
2018-06-12T13:46:50.465Z,54.38
2018-06-12T13:49:22.780Z,53.37
2018-06-12T13:51:51.860Z,55.38
2018-06-12T13:54:21.163Z,55.94
2018-06-12T13:56:50.312Z,56.92
2018-06-12T13:59:19.839Z,59.35
2018-06-12T14:01:49.137Z,62.12
2018-06-12T14:04:18.312Z,63.38
2018-06-12T14:06:47.474Z,68.99
2018-06-12T14:09:16.905Z,70.32
2018-06-12T14:11:47.005Z,69.81
2018-06-12T14:14:16.815Z,67.97
2018-06-12T14:16:47.029Z,69.43
2018-06-12T14:19:16.981Z,71.01
2018-06-12T14:21:46.979Z,72.53
2018-06-12T14:24:17.614Z,70.90
2018-06-12T14:26:47.063Z,72.04
2018-06-12T14:29:17.148Z,69.91
2018-06-12T14:31:47.121Z,71.88
2018-06-12T14:34:17.280Z,73.21
2018-06-12T14:36:47.220Z,76.06
2018-06-12T14:39:24.899Z,77.23
2018-06-12T14:41:54.243Z,79.37
2018-06-12T14:44:31.127Z,79.37
2018-06-12T14:47:00.276Z,80.10
2018-06-12T14:49:29.501Z,80.10
2018-06-12T14:51:59.587Z,79.21
2018-06-12T14:54:29.334Z,81.21
2018-06-12T14:56:58.493Z,81.41
2018-06-12T14:59:27.675Z,80.11
2018-06-12T15:01:56.768Z,79.35
2018-06-12T15:04:25.896Z,80.38
2018-06-12T15:06:55.092Z,80.56
2018-06-12T15:09:24.189Z,81.14
2018-06-12T15:11:53.548Z,81.73
2018-06-12T15:14:22.802Z,81.56
2018-06-12T15:16:52.044Z,83.07
2018-06-12T15:19:21.883Z,82.98
2018-06-12T15:21:51.159Z,84.52
2018-06-12T15:24:26.012Z,84.73
2018-06-12T15:26:55.243Z,85.04
2018-06-12T15:29:24.609Z,85.25
2018-06-12T15:31:54.523Z,84.44
2018-06-12T15:34:25.284Z,85.21
2018-06-12T15:36:54.591Z,86.49
2018-06-12T15:39:24.610Z,88.02
2018-06-12T15:41:53.793Z,86.78
2018-06-12T15:44:22.967Z,87.95
2018-06-12T15:46:52.182Z,88.74
2018-06-12T15:49:21.407Z,89.03
2018-06-12T15:51:50.581Z,88.90
2018-06-12T15:54:19.720Z,88.71
2018-06-12T15:56:48.855Z,88.87
2018-06-12T15:59:18.055Z,89.22
2018-06-12T16:01:48.324Z,90.26
2018-06-12T16:04:18.821Z,89.40
2018-06-12T16:06:48.208Z,89.86
2018-06-12T16:09:25.910Z,89.43
2018-06-12T16:11:55.047Z,89.98
2018-06-12T16:14:24.369Z,90.45
2018-06-12T16:16:53.567Z,91.08
2018-06-12T16:19:22.937Z,90.22
2018-06-12T16:21:55.940Z,91.59
2018-06-12T16:27:00.420Z,92.54
2018-06-12T16:29:29.636Z,93.57
2018-06-12T16:31:58.768Z,94.17
2018-06-12T16:34:28.049Z,95.43
2018-06-12T16:36:57.429Z,94.98
2018-06-12T16:39:32.896Z,95.72
2018-06-12T16:42:02.092Z,96.08
2018-06-12T16:44:31.257Z,95.85
2018-06-12T16:47:00.413Z,96.13
2018-06-12T16:49:29.620Z,94.04
2018-06-12T16:51:58.794Z,94.25
2018-06-12T16:54:27.995Z,94.67
2018-06-12T16:56:57.103Z,95.89
2018-06-12T16:59:27.313Z,95.91
2018-06-12T17:01:56.633Z,95.57
2018-06-12T17:04:25.801Z,95.85
2018-06-12T17:06:55.103Z,94.79
2018-06-12T17:09:25.172Z,95.79
2018-06-12T17:11:54.276Z,96.15
2018-06-12T17:14:23.994Z,94.96
2018-06-12T17:16:53.183Z,95.92
2018-06-12T17:19:22.998Z,95.92
2018-06-12T17:21:52.945Z,95.44
2018-06-12T17:24:22.218Z,95.41
2018-06-12T17:26:51.577Z,95.14
2018-06-12T17:29:20.709Z,95.53
2018-06-12T17:31:49.907Z,94.79
2018-06-12T17:34:20.140Z,94.39
2018-06-12T17:36:49.350Z,94.83
2018-06-12T17:39:19.079Z,93.51
2018-06-12T17:41:49.098Z,94.66
2018-06-12T17:44:20.530Z,95.43
2018-06-12T17:46:50.822Z,95.87
2018-06-12T17:49:20.141Z,96.76
2018-06-12T17:51:50.376Z,97.51
2018-06-12T17:54:20.721Z,97.86
2018-06-12T17:56:50.395Z,98.73
2018-06-12T17:59:20.441Z,99.16
2018-06-12T18:01:50.513Z,98.21
2018-06-12T18:04:20.600Z,99.41
2018-06-12T18:06:50.390Z,99.33
2018-06-12T18:09:20.472Z,99.32
2018-06-12T18:11:50.562Z,99.70
2018-06-12T18:14:20.699Z,99.74
2018-06-12T18:16:50.656Z,99.86
2018-06-12T18:19:21.515Z,99.84
2018-06-12T18:21:52.136Z,99.68
2018-06-12T18:24:33.557Z,99.79
2018-06-12T18:27:02.804Z,99.72
2018-06-12T18:32:14.323Z,100.00
2018-06-12T18:34:43.761Z,100.00
2018-06-12T18:37:13.017Z,100.00
2018-06-12T18:39:43.284Z,100.00
2018-06-12T18:42:13.201Z,100.00
2018-06-12T18:44:43.228Z,100.00
2018-06-12T18:47:15.589Z,99.78
2018-06-12T18:49:44.954Z,99.87
2018-06-12T18:52:14.250Z,99.21
2018-06-12T18:54:43.462Z,99.79
2018-06-12T18:57:12.593Z,99.52
2018-06-12T18:59:41.934Z,99.74
2018-06-12T19:02:11.456Z,99.56
2018-06-12T19:04:40.771Z,99.41
2018-06-12T19:07:10.165Z,99.02
2018-06-12T19:09:39.581Z,99.77
2018-06-12T19:12:08.965Z,99.92
2018-06-12T19:14:38.565Z,99.93
2018-06-12T19:17:08.933Z,99.50
2018-06-12T19:19:38.448Z,99.54
2018-06-12T19:22:08.717Z,99.92
2018-06-12T19:24:48.121Z,100.00
2018-06-12T19:27:26.934Z,99.48
2018-06-12T19:30:05.832Z,99.41
2018-06-12T19:41:52.807Z,99.74
2018-06-12T19:44:22.852Z,99.66
2018-06-12T19:46:53.186Z,99.76
2018-06-12T19:49:22.851Z,99.53
2018-06-12T19:51:52.963Z,99.28
2018-06-12T19:54:25.654Z,99.50
2018-06-12T19:56:55.280Z,99.92
2018-06-12T19:59:24.599Z,99.63
2018-06-12T20:01:54.041Z,100.00
2018-06-12T20:04:23.399Z,99.77
2018-06-12T20:06:52.959Z,100.00
2018-06-12T20:09:23.059Z,100.00
2018-06-12T20:11:52.999Z,100.00
2018-06-12T20:14:23.008Z,100.00
2018-06-12T20:16:53.021Z,100.00
2018-06-12T20:19:23.834Z,100.00
2018-06-12T20:21:52.999Z,100.00
2018-06-12T20:24:23.991Z,100.00
2018-06-12T20:26:53.152Z,100.00
2018-06-12T20:29:23.183Z,100.00
2018-06-12T20:31:54.498Z,100.00
2018-06-12T20:34:24.695Z,100.00
2018-06-12T20:36:53.954Z,100.00
2018-06-12T20:39:23.852Z,100.00
2018-06-12T20:41:54.616Z,100.00
2018-06-12T20:44:24.579Z,100.00
2018-06-12T20:46:53.894Z,100.00
2018-06-12T20:49:23.178Z,100.00
2018-06-12T20:51:53.541Z,100.00
2018-06-12T20:54:23.329Z,100.00
2018-06-12T20:56:53.254Z,100.00
2018-06-12T20:59:23.337Z,100.00
2018-06-12T21:01:53.707Z,100.00
2018-06-12T21:04:23.457Z,100.00
2018-06-12T21:06:52.515Z,99.91
2018-06-12T21:09:22.779Z,100.00
2018-06-12T21:11:52.113Z,99.35
2018-06-12T21:14:21.352Z,99.66
2018-06-12T21:17:03.686Z,98.97
2018-06-12T21:19:32.924Z,99.48
2018-06-12T21:22:02.259Z,99.62
2018-06-12T21:24:31.371Z,99.07
2018-06-12T21:27:01.641Z,99.00
2018-06-12T21:29:31.661Z,99.46
2018-06-12T21:32:01.474Z,99.27
2018-06-12T21:34:31.452Z,99.45
2018-06-12T21:37:01.560Z,100.00
2018-06-12T21:39:31.489Z,100.00
2018-06-12T21:42:01.592Z,100.00
2018-06-12T21:47:33.375Z,99.81
2018-06-12T21:50:02.475Z,99.57
2018-06-12T21:52:33.301Z,100.00
2018-06-12T21:55:02.424Z,99.80
2018-06-12T21:57:31.604Z,99.50
2018-06-12T22:00:00.776Z,99.33
2018-06-12T22:02:33.069Z,99.97
2018-06-12T22:05:02.395Z,99.44
2018-06-12T22:07:31.531Z,99.49
2018-06-12T22:10:00.693Z,100.00
2018-06-12T22:12:29.855Z,99.77
2018-06-12T22:14:59.211Z,99.65
2018-06-12T22:17:28.404Z,100.00
2018-06-12T22:19:57.693Z,100.00
2018-06-12T22:22:27.009Z,100.00
2018-06-12T22:24:56.146Z,100.00
2018-06-12T22:27:25.243Z,100.00
2018-06-12T22:29:54.441Z,100.00
2018-06-12T22:32:24.346Z,100.00
2018-06-12T22:34:53.619Z,100.00
2018-06-12T22:37:22.955Z,100.00
2018-06-12T22:39:57.929Z,100.00
2018-06-12T22:42:27.249Z,100.00
2018-06-12T22:44:56.323Z,100.00
2018-06-12T22:47:25.542Z,100.00
2018-06-12T22:49:54.618Z,100.00
2018-06-12T22:52:23.731Z,100.00
2018-06-12T22:54:53.059Z,100.00
2018-06-12T22:57:22.458Z,100.00
2018-06-12T22:59:51.640Z,100.00
2018-06-12T23:04:54.645Z,100.00
2018-06-12T23:07:23.780Z,100.00
2018-06-12T23:09:53.294Z,100.00
2018-06-12T23:12:22.460Z,100.00
2018-06-12T23:14:51.758Z,100.00
2018-06-12T23:17:22.158Z,100.00
2018-06-12T23:20:02.612Z,100.00
2018-06-12T23:22:31.730Z,100.00
2018-06-12T23:25:00.950Z,100.00
2018-06-12T23:27:33.858Z,100.00
2018-06-12T23:30:03.082Z,100.00
2018-06-12T23:32:32.539Z,100.00
2018-06-12T23:35:01.626Z,100.00
2018-06-12T23:37:30.710Z,100.00
2018-06-12T23:40:00.151Z,100.00
2018-06-12T23:42:31.424Z,100.00
2018-06-12T23:45:00.663Z,100.00
2018-06-12T23:47:29.954Z,100.00
2018-06-12T23:49:59.209Z,100.00
2018-06-12T23:52:28.468Z,100.00
2018-06-12T23:54:57.743Z,100.00
2018-06-12T23:57:26.853Z,100.00
2018-06-12T23:59:56.067Z,100.00
